Time;durP1;ratioP1;P1;durP2;ratioP2;P2;SDS_P1;SDS_P2;PMS_P1;PMS_P2;Temp;Humidity;BMP_temperature;BMP_pressure;BME280_temperature;BME280_humidity;BME280_pressure;Samples;Min_cycle;Max_cycle;Signal;HPM_P1;HPM_P2
2022/10/31 00:00:01;;;;;;;2.33;1.90;;;;;;;14.55;nan;-24222.97;5074237;28;20170;-72
2022/10/31 00:02:26;;;;;;;1.85;1.75;;;;;;;15.10;nan;-24238.09;5074260;28;20178;-72
2022/10/31 00:04:51;;;;;;;3.58;1.73;;;;;;;14.62;nan;-24224.78;5074418;28;20182;-71
2022/10/31 00:07:17;;;;;;;3.10;1.80;;;;;;;14.67;nan;-24226.19;5074542;28;20522;-71
2022/10/31 00:09:42;;;;;;;2.05;1.70;;;;;;;14.54;nan;-24222.69;5074361;28;20174;-71
2022/10/31 00:12:07;;;;;;;3.17;2.05;;;;;;;15.09;nan;-24237.97;5073866;28;20233;-72
2022/10/31 00:14:33;;;;;;;2.30;1.88;;;;;;;14.90;nan;-24232.63;5073408;28;20166;-72
2022/10/31 00:16:58;;;;;;;2.85;1.63;;;;;;;15.18;nan;-24240.34;5073864;28;20172;-72
2022/10/31 00:19:24;;;;;;;2.90;2.05;;;;;;;15.31;nan;-24244.13;5073687;28;20162;-72
2022/10/31 00:21:51;;;;;;;3.97;2.00;;;;;;;15.15;nan;-24239.66;5072460;28;20173;-72
2022/10/31 00:24:17;;;;;;;1.98;1.60;;;;;;;15.35;nan;-24245.25;5074123;28;20230;-72
2022/10/31 00:26:42;;;;;;;2.72;1.80;;;;;;;15.37;nan;-24245.81;5073312;28;20689;-72
2022/10/31 00:29:07;;;;;;;2.92;2.03;;;;;;;15.38;nan;-24245.94;5073764;28;20170;-71
2022/10/31 00:31:33;;;;;;;2.53;1.80;;;;;;;15.29;nan;-24243.56;5073691;28;20747;-73
2022/10/31 00:33:58;;;;;;;5.15;2.03;;;;;;;15.74;nan;-24256.03;5073703;28;20169;-73
2022/10/31 00:36:24;;;;;;;5.50;2.08;;;;;;;15.94;nan;-24261.50;5073998;28;20174;-73
2022/10/31 00:38:49;;;;;;;1.95;1.67;;;;;;;15.66;nan;-24253.78;5074063;28;20523;-73
2022/10/31 00:41:17;;;;;;;2.45;1.80;;;;;;;16.45;nan;-24275.63;5073097;28;20229;-73
2022/10/31 00:43:43;;;;;;;6.55;2.13;;;;;;;16.64;nan;-24280.78;5073419;28;20177;-73
2022/10/31 00:46:10;;;;;;;3.65;2.22;;;;;;;16.36;nan;-24273.09;5072449;28;20170;-72
2022/10/31 00:48:35;;;;;;;1.90;1.67;;;;;;;16.66;nan;-24281.34;5073597;28;20582;-72
2022/10/31 00:51:01;;;;;;;3.67;2.17;;;;;;;16.89;nan;-24287.63;5073851;28;20254;-73
2022/10/31 00:53:26;;;;;;;2.28;1.77;;;;;;;16.69;nan;-24282.31;5073303;28;20177;-72
2022/10/31 00:55:52;;;;;;;3.17;2.03;;;;;;;16.93;nan;-24288.75;5073104;28;20253;-72
2022/10/31 00:58:17;;;;;;;2.80;1.60;;;;;;;17.01;nan;-24291.13;5071552;28;20247;-72
2022/10/31 01:00:43;;;;;;;2.30;1.58;;;;;;;17.17;nan;-24295.44;5072316;28;20167;-71
2022/10/31 01:03:08;;;;;;;2.67;1.90;;;;;;;16.92;nan;-24288.47;5072343;28;20162;-70
2022/10/31 01:05:33;;;;;;;4.35;2.00;;;;;;;16.74;nan;-24283.72;5073085;28;20293;-73
2022/10/31 01:07:59;;;;;;;2.38;1.77;;;;;;;16.78;nan;-24284.84;5072701;28;20169;-72
2022/10/31 01:10:24;;;;;;;3.05;1.80;;;;;;;17.10;nan;-24293.50;5071989;28;20174;-71
2022/10/31 01:12:50;;;;;;;2.92;1.70;;;;;;;17.05;nan;-24292.09;5072757;28;20258;-72
2022/10/31 01:15:22;;;;;;;4.05;2.08;;;;;;;17.01;nan;-24291.00;5072418;28;20552;-72
2022/10/31 01:17:48;;;;;;;2.22;1.73;;;;;;;17.07;nan;-24292.66;5072303;28;20249;-72
2022/10/31 01:20:15;;;;;;;3.47;2.28;;;;;;;16.92;nan;-24288.63;5072393;28;20689;-72
2022/10/31 01:22:40;;;;;;;2.17;1.70;;;;;;;17.18;nan;-24295.72;5072157;28;20230;-72
2022/10/31 01:25:07;;;;;;;2.85;1.80;;;;;;;16.57;nan;-24278.97;5071627;28;20221;-73
2022/10/31 01:27:33;;;;;;;4.03;1.85;;;;;;;16.59;nan;-24279.41;5072401;28;20197;-72
2022/10/31 01:29:58;;;;;;;2.22;1.92;;;;;;;16.60;nan;-24279.81;5070660;28;20659;-72
2022/10/31 01:32:24;;;;;;;5.45;1.90;;;;;;;16.69;nan;-24282.19;5072400;28;20215;-73
2022/10/31 01:34:49;;;;;;;2.88;1.70;;;;;;;16.84;nan;-24286.22;5072683;28;20162;-72
2022/10/31 01:37:15;;;;;;;4.53;1.90;;;;;;;16.66;nan;-24281.34;5072586;28;20174;-73
2022/10/31 01:39:40;;;;;;;4.18;2.05;;;;;;;16.73;nan;-24283.44;5072423;28;20614;-72
2022/10/31 01:42:06;;;;;;;3.60;1.90;;;;;;;16.72;nan;-24283.03;5071652;28;20177;-72
2022/10/31 01:44:31;;;;;;;2.13;1.75;;;;;;;17.08;nan;-24293.09;5072250;28;20174;-72
2022/10/31 01:47:21;;;;;;;2.47;1.90;;;;;;;17.28;nan;-24298.53;5072102;28;20553;-72
2022/10/31 01:49:51;;;;;;;2.33;1.70;;;;;;;17.08;nan;-24292.94;5072225;28;20195;-72
2022/10/31 01:52:38;;;;;;;1.70;1.60;;;;;;;17.11;nan;-24293.91;5071910;28;20259;-72
2022/10/31 01:55:06;;;;;;;1.95;1.50;;;;;;;17.21;nan;-24296.72;5072277;28;20174;-72
2022/10/31 01:57:33;;;;;;;1.60;1.40;;;;;;;17.32;nan;-24299.63;5072402;28;20185;-73
2022/10/31 02:00:03;;;;;;;2.38;1.77;;;;;;;17.15;nan;-24295.03;5072128;28;20166;-73
2022/10/31 02:02:30;;;;;;;2.83;1.67;;;;;;;17.44;nan;-24302.84;5071954;28;20189;-72
2022/10/31 02:04:56;;;;;;;2.30;1.90;;;;;;;17.49;nan;-24304.25;5072284;28;20649;-72
2022/10/31 02:07:27;;;;;;;2.25;1.58;;;;;;;17.19;nan;-24296.00;5070858;28;20193;-72
2022/10/31 02:09:54;;;;;;;2.88;1.88;;;;;;;17.36;nan;-24300.75;5072403;28;20162;-72
2022/10/31 02:12:21;;;;;;;2.80;2.10;;;;;;;17.28;nan;-24298.53;5071792;28;20225;-72
2022/10/31 02:14:46;;;;;;;2.08;1.30;;;;;;;17.60;nan;-24307.31;5072508;28;20178;-72
2022/10/31 02:17:12;;;;;;;3.22;2.13;;;;;;;17.56;nan;-24306.34;5071704;28;20176;-71
2022/10/31 02:19:59;;;;;;;3.50;2.28;;;;;;;17.76;nan;-24311.63;5072072;28;20613;-71
2022/10/31 02:22:37;;;;;;;2.53;1.95;;;;;;;17.79;nan;-24312.47;5071439;28;20174;-71
2022/10/31 02:25:33;;;;;;;2.25;1.75;;;;;;;17.75;nan;-24311.38;5071236;28;20241;-72
2022/10/31 02:27:59;;;;;;;2.22;1.60;;;;;;;17.61;nan;-24307.75;5071762;28;20178;-71
2022/10/31 02:30:35;;;;;;;2.13;1.63;;;;;;;17.52;nan;-24305.09;5070297;28;20174;-71
2022/10/31 02:33:20;;;;;;;5.18;1.90;;;;;;;17.56;nan;-24306.34;5071686;28;20205;-71
2022/10/31 02:35:54;;;;;;;3.58;1.73;;;;;;;17.77;nan;-24312.06;5088429;28;20724;-71
2022/10/31 02:38:46;;;;;;;3.92;1.90;;;;;;;17.84;nan;-24313.88;5074937;28;20608;-71
2022/10/31 02:41:11;;;;;;;2.40;1.80;;;;;;;17.97;nan;-24317.50;5082850;28;20189;-72
2022/10/31 02:43:43;;;;;;;2.67;1.90;;;;;;;17.87;nan;-24314.84;5080289;28;20180;-71
2022/10/31 02:46:35;;;;;;;1.60;1.50;;;;;;;18.05;nan;-24319.72;5070634;28;20526;-72
2022/10/31 02:49:09;;;;;;;3.03;2.08;;;;;;;18.12;nan;-24321.53;5071996;28;20705;-72
2022/10/31 02:51:35;;;;;;;2.90;1.90;;;;;;;17.83;nan;-24313.75;5071475;28;20262;-70
2022/10/31 02:54:01;;;;;;;1.63;1.50;;;;;;;18.10;nan;-24321.25;5072347;28;20174;-71
2022/10/31 02:56:26;;;;;;;2.83;1.63;;;;;;;18.10;nan;-24321.13;5075837;28;20260;-71
2022/10/31 02:59:01;;;;;;;3.88;2.20;;;;;;;17.91;nan;-24315.81;5074842;28;20213;-72
2022/10/31 03:01:41;;;;;;;1.98;1.60;;;;;;;18.16;nan;-24322.66;5075436;28;20685;-71
2022/10/31 03:04:15;;;;;;;5.07;2.05;;;;;;;18.20;nan;-24323.78;5075407;28;20158;-72
2022/10/31 03:06:56;;;;;;;3.70;1.73;;;;;;;18.25;nan;-24325.31;5075240;28;20159;-72
2022/10/31 03:09:53;;;;;;;3.83;1.73;;;;;;;18.21;nan;-24324.19;5074904;28;20169;-73
2022/10/31 03:12:38;;;;;;;3.33;1.70;;;;;;;18.04;nan;-24319.59;5075300;28;20193;-72
2022/10/31 03:15:23;;;;;;;2.47;1.70;;;;;;;17.87;nan;-24314.84;5075079;28;20166;-72
2022/10/31 03:18:18;;;;;;;3.92;1.65;;;;;;;18.14;nan;-24322.09;5074902;28;20166;-72
2022/10/31 03:20:54;;;;;;;1.50;1.40;;;;;;;17.74;nan;-24311.09;5061579;28;20271;-72
2022/10/31 03:23:23;;;;;;;2.75;1.60;;;;;;;17.99;nan;-24318.06;5074395;28;20208;-72
2022/10/31 03:25:50;;;;;;;4.82;2.25;;;;;;;18.26;nan;-24325.59;5074950;28;20218;-72
2022/10/31 03:28:19;;;;;;;2.20;1.55;;;;;;;18.35;nan;-24328.09;5074714;28;20178;-72
2022/10/31 03:30:45;;;;;;;2.28;1.60;;;;;;;18.19;nan;-24323.63;5073767;28;20174;-72
2022/10/31 03:33:17;;;;;;;3.70;2.03;;;;;;;18.32;nan;-24327.25;5074622;28;20708;-72
2022/10/31 03:35:46;;;;;;;3.83;1.70;;;;;;;17.85;nan;-24314.16;5074787;28;20174;-72
2022/10/31 03:38:13;;;;;;;3.35;1.88;;;;;;;18.07;nan;-24320.44;5074695;28;20166;-72
2022/10/31 03:40:43;;;;;;;1.80;1.40;;;;;;;18.33;nan;-24327.41;5074401;28;20174;-71
2022/10/31 03:43:14;;;;;;;3.25;2.33;;;;;;;18.10;nan;-24321.13;5074885;28;20170;-72
2022/10/31 03:45:43;;;;;;;2.42;1.75;;;;;;;18.13;nan;-24321.97;5074262;28;20189;-72
2022/10/31 03:48:09;;;;;;;3.08;1.88;;;;;;;18.36;nan;-24328.22;5074570;28;20174;-71
2022/10/31 03:51:13;;;;;;;2.25;2.00;;;;;;;18.37;nan;-24328.50;5074397;28;20186;-72
2022/10/31 03:53:45;;;;;;;4.30;1.75;;;;;;;18.20;nan;-24323.91;5074023;28;20177;-72
2022/10/31 03:56:25;;;;;;;6.45;2.10;;;;;;;17.75;nan;-24311.50;5074746;28;20550;-72
2022/10/31 03:59:13;;;;;;;2.47;1.80;;;;;;;17.81;nan;-24313.19;5074618;28;20202;-71
2022/10/31 04:01:43;;;;;;;3.20;1.70;;;;;;;17.65;nan;-24308.72;5074768;28;20185;-72
2022/10/31 04:04:10;;;;;;;2.60;1.70;;;;;;;17.73;nan;-24310.94;5074195;28;20173;-72
2022/10/31 04:06:38;;;;;;;3.92;2.10;;;;;;;17.87;nan;-24314.72;5073512;28;20634;-72
2022/10/31 04:09:07;;;;;;;5.28;2.00;;;;;;;17.64;nan;-24308.56;5073911;28;20226;-72
2022/10/31 04:11:38;;;;;;;3.58;1.88;;;;;;;17.62;nan;-24308.00;5087573;28;20201;-73
2022/10/31 04:14:05;;;;;;;2.38;2.00;;;;;;;17.46;nan;-24303.41;5076668;28;20652;-72
2022/10/31 04:16:31;;;;;;;3.92;1.85;;;;;;;17.72;nan;-24310.66;5089577;28;20177;-72
2022/10/31 04:18:56;;;;;;;3.25;1.83;;;;;;;17.71;nan;-24310.25;5078943;28;20165;-72
2022/10/31 04:21:29;;;;;;;5.82;1.92;;;;;;;17.31;nan;-24299.22;5092534;28;20184;-71
2022/10/31 04:23:56;;;;;;;2.20;1.60;;;;;;;17.47;nan;-24303.69;5087819;28;20177;-71
2022/10/31 04:26:21;;;;;;;4.40;2.25;;;;;;;17.48;nan;-24303.97;5086212;28;20216;-72
2022/10/31 04:28:47;;;;;;;2.67;1.77;;;;;;;17.56;nan;-24306.19;5082579;28;20670;-72
2022/10/31 04:31:13;;;;;;;4.63;1.83;;;;;;;17.12;nan;-24294.19;5085826;28;20192;-72
2022/10/31 04:33:39;;;;;;;4.15;2.13;;;;;;;17.27;nan;-24298.25;5086586;28;20185;-71
2022/10/31 04:36:04;;;;;;;4.45;1.83;;;;;;;17.44;nan;-24302.84;5085372;28;20666;-72
2022/10/31 04:38:30;;;;;;;2.92;1.95;;;;;;;17.43;nan;-24302.56;5085622;28;20169;-72
2022/10/31 04:40:56;;;;;;;2.30;1.70;;;;;;;17.28;nan;-24298.38;5086707;28;20178;-71
2022/10/31 04:43:21;;;;;;;3.05;1.88;;;;;;;16.82;nan;-24285.69;5085249;28;20347;-72
2022/10/31 04:45:47;;;;;;;2.45;2.08;;;;;;;17.09;nan;-24293.22;5084890;28;20215;-72
2022/10/31 04:48:13;;;;;;;6.82;2.22;;;;;;;17.10;nan;-24293.50;5086030;28;20177;-72
2022/10/31 04:50:38;;;;;;;2.53;1.90;;;;;;;17.07;nan;-24292.66;5085120;28;20177;-72
2022/10/31 04:53:03;;;;;;;3.42;2.08;;;;;;;16.92;nan;-24288.63;5084639;28;20741;-72
2022/10/31 04:55:29;;;;;;;2.50;2.17;;;;;;;17.08;nan;-24293.09;5085719;28;20673;-72
2022/10/31 04:57:54;;;;;;;2.22;1.88;;;;;;;17.12;nan;-24294.06;5085884;28;20197;-72
2022/10/31 05:00:21;;;;;;;3.63;2.05;;;;;;;;;;5083764;28;20223;-72
2022/10/31 05:02:47;;;;;;;2.72;1.88;;;;;;;16.91;nan;-24288.19;5084970;28;20648;-71
2022/10/31 05:05:15;;;;;;;4.20;2.45;;;;;;;17.18;nan;-24295.72;5087050;28;20189;-71
2022/10/31 05:07:42;;;;;;;2.47;2.10;;;;;;;17.17;nan;-24295.59;5084830;28;20260;-72
2022/10/31 05:10:10;;;;;;;2.97;1.83;;;;;;;17.26;nan;-24297.81;5085661;28;20250;-73
2022/10/31 05:12:35;;;;;;;3.35;1.83;;;;;;;17.22;nan;-24296.84;5085751;28;20240;-73
2022/10/31 05:15:01;;;;;;;2.33;1.77;;;;;;;17.45;nan;-24303.28;5085492;28;20676;-73
2022/10/31 05:17:26;;;;;;;3.92;1.90;;;;;;;17.40;nan;-24301.72;5087688;28;20555;-74
2022/10/31 05:19:51;;;;;;;2.45;1.80;;;;;;;17.28;nan;-24298.53;5081974;28;20538;-74
2022/10/31 05:22:17;;;;;;;6.72;2.03;;;;;;;17.50;nan;-24304.53;5102561;28;20181;-73
2022/10/31 05:24:42;;;;;;;6.10;1.58;;;;;;;17.51;nan;-24304.81;5092200;28;20644;-72
2022/10/31 05:27:08;;;;;;;4.20;1.80;;;;;;;17.52;nan;-24305.22;5074612;28;20174;-73
2022/10/31 05:29:33;;;;;;;4.03;1.75;;;;;;;17.46;nan;-24303.56;5092307;28;20608;-74
2022/10/31 05:31:59;;;;;;;2.83;1.88;;;;;;;17.31;nan;-24299.38;5092826;28;20229;-72
2022/10/31 05:34:24;;;;;;;3.42;1.90;;;;;;;17.53;nan;-24305.50;5085650;28;20189;-71
2022/10/31 05:36:50;;;;;;;1.92;1.60;;;;;;;17.48;nan;-24303.97;5076756;28;20174;-72
2022/10/31 05:39:15;;;;;;;3.30;2.03;;;;;;;17.40;nan;-24301.72;5090569;28;20187;-72
2022/10/31 05:41:41;;;;;;;4.03;2.00;;;;;;;17.53;nan;-24305.50;5091118;28;20269;-72
2022/10/31 05:44:06;;;;;;;3.05;1.85;;;;;;;17.82;nan;-24313.31;5092709;28;20169;-72
2022/10/31 05:46:32;;;;;;;3.40;2.05;;;;;;;17.94;nan;-24316.66;5079944;28;20184;-72
2022/10/31 05:48:57;;;;;;;4.35;2.80;;;;;;;17.99;nan;-24318.06;5072489;28;20226;-72
2022/10/31 05:51:22;;;;;;;4.50;2.25;;;;;;;17.70;nan;-24309.97;5087953;28;20595;-73
2022/10/31 05:53:48;;;;;;;2.38;1.75;;;;;;;18.05;nan;-24319.72;5086121;28;20257;-73
2022/10/31 05:56:13;;;;;;;5.68;2.08;;;;;;;18.04;nan;-24319.44;5070050;28;20174;-72
2022/10/31 05:58:38;;;;;;;3.55;1.90;;;;;;;18.05;nan;-24319.72;5086440;28;20268;-72
2022/10/31 06:01:05;;;;;;;3.53;1.90;;;;;;;18.13;nan;-24321.97;5090192;28;20651;-73
2022/10/31 06:03:30;;;;;;;6.28;2.30;;;;;;;18.16;nan;-24322.81;5088812;28;20174;-73
2022/10/31 06:05:56;;;;;;;2.83;2.00;;;;;;;18.09;nan;-24320.97;5083045;28;20247;-73
2022/10/31 06:08:21;;;;;;;4.03;2.20;;;;;;;18.22;nan;-24324.47;5080630;28;20181;-73
2022/10/31 06:10:46;;;;;;;2.58;1.85;;;;;;;18.29;nan;-24326.28;5091308;28;20868;-72
2022/10/31 06:13:12;;;;;;;2.85;2.05;;;;;;;17.94;nan;-24316.81;5078425;28;20232;-74
2022/10/31 06:15:37;;;;;;;2.95;1.80;;;;;;;18.21;nan;-24324.19;5085642;28;20645;-73
2022/10/31 06:18:05;;;;;;;4.63;2.05;;;;;;;18.21;nan;-24324.19;5079661;28;20486;-72
2022/10/31 06:20:31;;;;;;;3.50;2.05;;;;;;;18.42;nan;-24330.03;5091382;28;20185;-73
2022/10/31 06:22:57;;;;;;;3.33;1.95;;;;;;;17.55;nan;-24305.91;5080527;28;20205;-73
2022/10/31 06:25:22;;;;;;;2.25;1.90;;;;;;;18.65;nan;-24336.19;5085874;28;20295;-74
2022/10/31 06:27:48;;;;;;;3.55;2.10;;;;;;;18.48;nan;-24331.72;5076646;28;20185;-74
2022/10/31 06:30:13;;;;;;;6.32;1.90;;;;;;;18.82;nan;-24341.03;5075352;28;20272;-73
2022/10/31 06:32:39;;;;;;;3.08;1.77;;;;;;;19.18;nan;-24350.94;5080840;28;20200;-73
2022/10/31 06:35:05;;;;;;;4.95;2.03;;;;;;;19.32;nan;-24354.69;5088338;28;20177;-72
2022/10/31 06:37:30;;;;;;;2.28;1.77;;;;;;;19.74;nan;-24366.38;5081022;28;20205;-73
2022/10/31 06:39:55;;;;;;;4.40;2.20;;;;;;;19.67;nan;-24364.44;5088283;28;20190;-73
2022/10/31 06:42:21;;;;;;;2.33;2.10;;;;;;;20.12;nan;-24376.78;5090542;28;20250;-73
2022/10/31 06:44:46;;;;;;;4.47;1.70;;;;;;;20.36;nan;-24383.19;5090488;28;20181;-74
2022/10/31 06:47:11;;;;;;;4.10;2.25;;;;;;;20.09;nan;-24375.97;5073433;28;20320;-73
2022/10/31 06:49:37;;;;;;;3.83;1.70;;;;;;;20.12;nan;-24376.78;5090436;28;20360;-72
2022/10/31 06:52:03;;;;;;;5.35;2.05;;;;;;;20.18;nan;-24378.31;5091208;28;20181;-73
2022/10/31 06:54:28;;;;;;;2.97;2.03;;;;;;;20.62;nan;-24390.41;5070770;28;20174;-73
2022/10/31 06:56:53;;;;;;;3.42;2.28;;;;;;;20.26;nan;-24380.69;5074725;28;20180;-73
2022/10/31 06:59:19;;;;;;;2.05;1.70;;;;;;;20.24;nan;-24380.13;5089079;28;20284;-73
2022/10/31 07:01:44;;;;;;;3.97;1.98;;;;;;;20.55;nan;-24388.59;5091234;28;20173;-74
2022/10/31 07:04:10;;;;;;;3.78;2.15;;;;;;;20.48;nan;-24386.53;5082298;28;20260;-74
2022/10/31 07:06:36;;;;;;;2.42;1.83;;;;;;;20.45;nan;-24385.69;5069826;28;20269;-73
2022/10/31 07:09:01;;;;;;;1.90;1.42;;;;;;;20.58;nan;-24389.44;5069499;28;20276;-73
2022/10/31 07:11:27;;;;;;;2.78;1.75;;;;;;;20.41;nan;-24384.72;5070939;28;20633;-73
2022/10/31 07:13:52;;;;;;;3.13;1.83;;;;;;;20.59;nan;-24389.56;5071066;28;20205;-73
2022/10/31 07:16:17;;;;;;;2.08;1.80;;;;;;;20.43;nan;-24385.28;5070695;28;20231;-73
2022/10/31 07:18:43;;;;;;;5.80;2.50;;;;;;;20.69;nan;-24392.47;5071175;28;20639;-73
2022/10/31 07:21:08;;;;;;;2.20;1.70;;;;;;;20.69;nan;-24392.47;5071045;28;20220;-74
2022/10/31 07:23:33;;;;;;;2.22;1.80;;;;;;;20.91;nan;-24398.31;5070952;28;20186;-75
2022/10/31 07:25:59;;;;;;;4.63;2.08;;;;;;;20.81;nan;-24395.53;5086868;28;20312;-72
2022/10/31 07:28:26;;;;;;;3.28;2.08;;;;;;;21.03;nan;-24401.78;5072815;28;20174;-73
2022/10/31 07:30:54;;;;;;;3.35;1.90;;;;;;;21.12;nan;-24404.28;5090828;28;20169;-73
2022/10/31 07:33:20;;;;;;;3.88;2.00;;;;;;;20.94;nan;-24399.28;5083226;28;20234;-72
2022/10/31 07:35:46;;;;;;;7.57;1.70;;;;;;;21.20;nan;-24406.22;5077539;28;20551;-72
2022/10/31 07:38:13;;;;;;;3.38;2.00;;;;;;;21.10;nan;-24403.56;5090177;28;20201;-72
2022/10/31 07:40:40;;;;;;;2.58;1.75;;;;;;;21.43;nan;-24412.72;5090199;28;20269;-73
2022/10/31 07:43:06;;;;;;;3.67;2.05;;;;;;;21.09;nan;-24403.31;5084937;28;20184;-73
2022/10/31 07:45:31;;;;;;;2.83;1.80;;;;;;;21.13;nan;-24404.41;5086039;28;20264;-74
2022/10/31 07:47:56;;;;;;;2.13;1.85;;;;;;;21.46;nan;-24413.44;5094512;28;20230;-73
2022/10/31 07:50:24;;;;;;;3.67;2.03;;;;;;;21.85;nan;-24424.09;5077620;28;20553;-70
2022/10/31 07:53:00;;;;;;;3.08;1.95;;;;;;;21.91;nan;-24425.75;5072860;28;20205;-69
2022/10/31 07:55:26;;;;;;;4.75;2.00;;;;;;;21.96;nan;-24427.28;5077268;28;20177;-68
2022/10/31 07:58:03;;;;;;;3.05;2.00;;;;;;;21.67;nan;-24419.09;5094221;28;20234;-69
2022/10/31 08:00:29;;;;;;;2.85;1.80;;;;;;;21.90;nan;-24425.47;5086517;28;20183;-70
2022/10/31 08:03:03;;;;;;;3.05;1.63;;;;;;;22.07;nan;-24430.19;5079833;28;20196;-69
2022/10/31 08:05:30;;;;;;;2.20;1.52;;;;;;;22.14;nan;-24432.13;5074787;28;20222;-71
2022/10/31 08:07:55;;;;;;;3.30;2.22;;;;;;;21.95;nan;-24427.00;5094440;28;20688;-68
2022/10/31 08:10:22;;;;;;;5.63;2.20;;;;;;;22.41;nan;-24439.59;5094343;28;20303;-71
2022/10/31 08:12:54;;;;;;;2.42;1.73;;;;;;;22.61;nan;-24444.84;5093902;28;20575;-69
2022/10/31 08:15:19;;;;;;;1.98;1.77;;;;;;;22.36;nan;-24438.06;5094397;28;20173;-67
2022/10/31 08:17:44;;;;;;;3.58;2.00;;;;;;;22.62;nan;-24445.13;5094118;28;20172;-72
2022/10/31 08:20:10;;;;;;;2.92;1.95;;;;;;;22.74;nan;-24448.59;5094258;28;20177;-67
2022/10/31 08:22:35;;;;;;;4.63;2.20;;;;;;;22.86;nan;-24451.91;5094515;28;20165;-70
2022/10/31 08:25:01;;;;;;;2.95;1.95;;;;;;;22.93;nan;-24453.56;5094060;28;20300;-69
2022/10/31 08:27:27;;;;;;;3.17;2.10;;;;;;;22.59;nan;-24444.44;5094311;28;20201;-68
2022/10/31 08:29:52;;;;;;;3.45;1.95;;;;;;;23.17;nan;-24460.19;5094394;28;20178;-68
2022/10/31 08:32:17;;;;;;;2.97;2.10;;;;;;;23.25;nan;-24462.56;5094000;28;20212;-71
2022/10/31 08:34:43;;;;;;;4.13;2.03;;;;;;;23.62;nan;-24472.63;5093767;28;20165;-69
2022/10/31 08:37:08;;;;;;;3.40;2.20;;;;;;;23.75;nan;-24476.09;5093795;28;20512;-68
2022/10/31 08:39:34;;;;;;;2.92;2.15;;;;;;;24.10;nan;-24485.75;5093652;28;20173;-68
2022/10/31 08:41:59;;;;;;;2.90;2.13;;;;;;;24.13;nan;-24486.44;5094183;28;20201;-71
2022/10/31 08:44:24;;;;;;;4.72;2.15;;;;;;;24.57;nan;-24498.41;5093924;28;20154;-72
2022/10/31 08:46:50;;;;;;;3.33;2.05;;;;;;;24.70;nan;-24502.00;5093808;28;20176;-68
2022/10/31 08:49:15;;;;;;;3.78;2.13;;;;;;;24.98;nan;-24509.72;5093339;28;20546;-68
2022/10/31 08:51:40;;;;;;;4.80;2.35;;;;;;;24.81;nan;-24505.03;5093378;28;20201;-69
2022/10/31 08:54:06;;;;;;;3.00;1.95;;;;;;;25.10;nan;-24512.88;5093513;28;20218;-69
2022/10/31 08:56:31;;;;;;;2.78;2.08;;;;;;;25.05;nan;-24511.50;5093894;28;20177;-72
2022/10/31 08:58:57;;;;;;;3.42;2.05;;;;;;;24.77;nan;-24503.78;5093244;28;20671;-72
2022/10/31 09:01:22;;;;;;;2.25;1.80;;;;;;;24.87;nan;-24506.69;5093195;28;20265;-69
2022/10/31 09:03:47;;;;;;;4.28;2.25;;;;;;;25.05;nan;-24511.66;5093455;28;20223;-72
2022/10/31 09:06:13;;;;;;;3.55;1.70;;;;;;;25.26;nan;-24517.28;5093634;28;20172;-71
2022/10/31 09:08:38;;;;;;;4.35;1.80;;;;;;;18.93;nan;-24343.97;5093584;28;20197;-70
2022/10/31 09:11:06;;;;;;;2.95;2.15;;;;;;;24.53;nan;-24497.47;5093905;28;20319;-72
2022/10/31 09:13:31;;;;;;;2.30;1.60;;;;;;;24.57;nan;-24498.41;5092976;28;20172;-71
2022/10/31 09:16:00;;;;;;;3.00;1.60;;;;;;;24.72;nan;-24502.41;5092869;28;20174;-72
2022/10/31 09:18:27;;;;;;;4.47;1.95;;;;;;;24.35;nan;-24492.50;5092658;28;20165;-71
2022/10/31 09:20:53;;;;;;;2.17;1.63;;;;;;;24.24;nan;-24489.47;5092898;28;20219;-68
2022/10/31 09:23:22;;;;;;;2.80;1.75;;;;;;;24.32;nan;-24491.53;5083217;28;20212;-70
2022/10/31 09:25:50;;;;;;;3.65;2.20;;;;;;;24.57;nan;-24498.56;5072473;28;20221;-68
2022/10/31 09:28:18;;;;;;;2.85;1.80;;;;;;;24.62;nan;-24499.81;5088110;28;20318;-72
2022/10/31 09:30:46;;;;;;;4.38;1.95;;;;;;;24.45;nan;-24495.25;5092957;28;20196;-71
2022/10/31 09:33:13;;;;;;;3.03;1.83;;;;;;;24.29;nan;-24490.72;5092618;28;20197;-71
2022/10/31 09:35:39;;;;;;;2.30;1.85;;;;;;;24.31;nan;-24491.41;5092853;28;20173;-71
2022/10/31 09:38:08;;;;;;;2.80;1.92;;;;;;;24.45;nan;-24495.13;5092926;28;20222;-70
2022/10/31 09:40:46;;;;;;;3.63;1.95;;;;;;;24.41;nan;-24494.00;5091542;28;20599;-71
2022/10/31 09:43:14;;;;;;;1.92;1.50;;;;;;;24.56;nan;-24498.16;5092657;28;20169;-75
2022/10/31 09:45:59;;;;;;;6.05;2.15;;;;;;;24.85;nan;-24506.00;5093010;28;20205;-70
2022/10/31 09:48:30;;;;;;;4.30;2.10;;;;;;;24.85;nan;-24506.00;5092784;28;20213;-72
2022/10/31 09:51:00;;;;;;;2.97;1.77;;;;;;;25.06;nan;-24511.78;5092584;28;20180;-69
2022/10/31 09:53:39;;;;;;;3.13;1.63;;;;;;;24.75;nan;-24503.38;5092073;28;20196;-72
2022/10/31 09:56:19;;;;;;;5.70;1.73;;;;;;;24.95;nan;-24508.75;5092611;28;20165;-71
2022/10/31 09:58:53;;;;;;;2.47;1.70;;;;;;;24.95;nan;-24508.75;5092506;28;20229;-70
2022/10/31 10:01:45;;;;;;;2.80;1.83;;;;;;;25.09;nan;-24512.63;5091702;28;20184;-69
2022/10/31 10:04:30;;;;;;;3.03;2.10;;;;;;;25.09;nan;-24512.63;5085071;28;20180;-69
2022/10/31 10:06:56;;;;;;;3.05;1.77;;;;;;;25.10;nan;-24512.88;5074628;28;20189;-72
2022/10/31 10:09:25;;;;;;;2.03;1.60;;;;;;;24.88;nan;-24506.81;5074904;28;20190;-69
2022/10/31 10:12:16;;;;;;;1.83;1.40;;;;;;;24.90;nan;-24507.53;5092157;28;20186;-69
2022/10/31 10:15:09;;;;;;;2.67;1.67;;;;;;;24.87;nan;-24506.56;5091950;28;20173;-73
2022/10/31 10:17:49;;;;;;;2.63;1.48;;;;;;;25.16;nan;-24514.53;5089246;28;20153;-71
2022/10/31 10:20:28;;;;;;;5.40;1.80;;;;;;;25.21;nan;-24515.78;5070802;28;20193;-69
2022/10/31 10:23:25;;;;;;;3.13;1.25;;;;;;;25.29;nan;-24518.13;5071064;28;20170;-69
2022/10/31 10:26:01;;;;;;;2.47;1.65;;;;;;;25.15;nan;-24514.28;5070489;28;20274;-70
2022/10/31 10:28:37;;;;;;;2.35;1.92;;;;;;;25.27;nan;-24517.44;5070636;28;20165;-70
2022/10/31 10:31:16;;;;;;;2.15;1.48;;;;;;;25.36;nan;-24520.03;5070563;28;20161;-69
2022/10/31 10:33:42;;;;;;;2.42;1.63;;;;;;;25.45;nan;-24522.53;5071244;28;20169;-68
2022/10/31 10:36:17;;;;;;;2.95;1.85;;;;;;;25.37;nan;-24520.31;5069742;28;20184;-71
2022/10/31 10:38:53;;;;;;;3.03;1.75;;;;;;;25.54;nan;-24524.88;5082313;28;20197;-71
2022/10/31 10:41:22;;;;;;;5.28;1.70;;;;;;;25.37;nan;-24520.31;5091106;28;20179;-68
2022/10/31 10:43:50;;;;;;;2.67;1.50;;;;;;;25.50;nan;-24523.91;5072591;28;20189;-70
2022/10/31 10:49:30;;;;;;;1.65;1.35;;;;;;;25.51;nan;-24524.16;5090539;28;20211;-67
2022/10/31 10:52:08;;;;;;;1.95;1.60;;;;;;;25.52;nan;-24524.31;5090311;28;20189;-68
2022/10/31 10:54:48;;;;;;;2.67;2.05;;;;;;;25.58;nan;-24525.97;5091146;28;20252;-68
2022/10/31 10:57:31;;;;;;;2.63;1.60;;;;;;;25.47;nan;-24523.06;5090882;28;20169;-70
2022/10/31 11:00:01;;;;;;;4.35;1.80;;;;;;;25.28;nan;-24517.84;5090770;28;20173;-71
2022/10/31 11:02:30;;;;;;;2.72;1.67;;;;;;;25.58;nan;-24525.97;5091021;28;20161;-70
2022/10/31 11:04:59;;;;;;;3.92;2.10;;;;;;;25.91;nan;-24535.03;5090686;28;20617;-69
2022/10/31 11:07:24;;;;;;;2.10;1.40;;;;;;;25.52;nan;-24524.44;5090626;28;20181;-73
2022/10/31 11:09:50;;;;;;;3.30;1.70;;;;;;;25.78;nan;-24531.47;5091614;28;20528;-69
2022/10/31 11:12:15;;;;;;;3.30;1.50;;;;;;;25.97;nan;-24536.56;5090708;28;20185;-71
2022/10/31 11:14:47;;;;;;;1.45;1.17;;;;;;;25.69;nan;-24528.84;5090467;28;20177;-67
2022/10/31 11:17:26;;;;;;;2.25;1.70;;;;;;;25.81;nan;-24532.16;5093487;28;20202;-67
2022/10/31 11:20:03;;;;;;;2.33;1.52;;;;;;;26.13;nan;-24540.94;5095058;28;20168;-72
2022/10/31 11:22:29;;;;;;;2.97;1.95;;;;;;;26.04;nan;-24538.47;5095185;28;20488;-67
2022/10/31 11:24:54;;;;;;;1.63;1.23;;;;;;;25.72;nan;-24529.81;5094185;28;20170;-67
2022/10/31 11:27:22;;;;;;;2.15;1.50;;;;;;;25.69;nan;-24529.00;5094414;28;20212;-70
2022/10/31 11:29:49;;;;;;;3.30;1.90;;;;;;;25.36;nan;-24520.03;5093251;28;20177;-68
2022/10/31 11:32:23;;;;;;;2.13;1.52;;;;;;;25.56;nan;-24525.28;5094321;28;20192;-68
2022/10/31 11:35:01;;;;;;;2.13;1.50;;;;;;;25.10;nan;-24512.88;5093819;28;20525;-71
2022/10/31 11:37:30;;;;;;;3.80;1.50;;;;;;;25.39;nan;-24520.72;5093203;28;20616;-71
2022/10/31 11:39:58;;;;;;;5.95;1.67;;;;;;;25.47;nan;-24523.06;5094631;28;20261;-71
2022/10/31 11:42:34;;;;;;;2.58;1.85;;;;;;;25.32;nan;-24518.94;5094334;28;20170;-73
2022/10/31 11:45:06;;;;;;;1.75;1.42;;;;;;;25.59;nan;-24526.25;5094860;28;20226;-70
2022/10/31 11:47:32;;;;;;;2.22;1.80;;;;;;;25.52;nan;-24524.44;5094457;28;20222;-71
2022/10/31 11:50:02;;;;;;;2.08;1.70;;;;;;;25.53;nan;-24524.72;5094589;28;20177;-69
2022/10/31 11:52:31;;;;;;;2.17;1.50;;;;;;;25.52;nan;-24524.44;5094441;28;20201;-73